sensor_id;sensor_type;location;lat;lon;timestamp;P1;durP1;ratioP1;P2;durP2;ratioP2
61038;SDS011;46919;45.816;3.104;2024-01-30T00:00:54;9.02;;;6.25;;
61038;SDS011;46919;45.816;3.104;2024-01-30T00:03:19;9.27;;;5.30;;
61038;SDS011;46919;45.816;3.104;2024-01-30T00:05:45;8.82;;;5.40;;
61038;SDS011;46919;45.816;3.104;2024-01-30T00:08:10;8.88;;;5.28;;
61038;SDS011;46919;45.816;3.104;2024-01-30T00:10:36;9.82;;;4.97;;
61038;SDS011;46919;45.816;3.104;2024-01-30T00:13:01;8.20;;;4.97;;
61038;SDS011;46919;45.816;3.104;2024-01-30T00:15:27;7.25;;;4.80;;
61038;SDS011;46919;45.816;3.104;2024-01-30T00:17:53;7.53;;;4.60;;
61038;SDS011;46919;45.816;3.104;2024-01-30T00:20:18;7.88;;;4.57;;
61038;SDS011;46919;45.816;3.104;2024-01-30T00:22:45;8.00;;;4.47;;
61038;SDS011;46919;45.816;3.104;2024-01-30T00:25:11;9.80;;;4.82;;
61038;SDS011;46919;45.816;3.104;2024-01-30T00:27:36;11.13;;;5.75;;
61038;SDS011;46919;45.816;3.104;2024-01-30T00:30:01;11.25;;;5.43;;
61038;SDS011;46919;45.816;3.104;2024-01-30T00:32:27;9.30;;;4.43;;
61038;SDS011;46919;45.816;3.104;2024-01-30T00:34:52;10.07;;;4.72;;
61038;SDS011;46919;45.816;3.104;2024-01-30T00:37:18;8.70;;;4.88;;
61038;SDS011;46919;45.816;3.104;2024-01-30T00:39:43;9.77;;;5.43;;
61038;SDS011;46919;45.816;3.104;2024-01-30T00:42:09;10.90;;;5.47;;
61038;SDS011;46919;45.816;3.104;2024-01-30T00:44:34;8.32;;;5.50;;
61038;SDS011;46919;45.816;3.104;2024-01-30T00:47:03;10.90;;;5.40;;
61038;SDS011;46919;45.816;3.104;2024-01-30T00:49:29;10.38;;;5.22;;
61038;SDS011;46919;45.816;3.104;2024-01-30T00:51:54;11.50;;;5.50;;
61038;SDS011;46919;45.816;3.104;2024-01-30T00:54:19;10.65;;;5.80;;
61038;SDS011;46919;45.816;3.104;2024-01-30T00:56:45;10.23;;;5.78;;
61038;SDS011;46919;45.816;3.104;2024-01-30T00:59:11;11.30;;;6.20;;
61038;SDS011;46919;45.816;3.104;2024-01-30T01:01:36;13.57;;;6.78;;
61038;SDS011;46919;45.816;3.104;2024-01-30T01:04:02;12.05;;;6.40;;
61038;SDS011;46919;45.816;3.104;2024-01-30T01:06:27;14.25;;;6.60;;
61038;SDS011;46919;45.816;3.104;2024-01-30T01:08:52;14.02;;;6.60;;
61038;SDS011;46919;45.816;3.104;2024-01-30T01:11:18;12.13;;;5.75;;
61038;SDS011;46919;45.816;3.104;2024-01-30T01:13:43;9.30;;;5.47;;
61038;SDS011;46919;45.816;3.104;2024-01-30T01:16:09;8.95;;;4.93;;
61038;SDS011;46919;45.816;3.104;2024-01-30T01:18:34;7.78;;;3.85;;
61038;SDS011;46919;45.816;3.104;2024-01-30T01:20:59;14.35;;;6.07;;
61038;SDS011;46919;45.816;3.104;2024-01-30T01:23:25;12.95;;;5.93;;
61038;SDS011;46919;45.816;3.104;2024-01-30T01:25:51;11.52;;;6.32;;
61038;SDS011;46919;45.816;3.104;2024-01-30T01:28:16;12.38;;;6.40;;
61038;SDS011;46919;45.816;3.104;2024-01-30T01:30:42;10.88;;;5.57;;
61038;SDS011;46919;45.816;3.104;2024-01-30T01:33:07;12.90;;;6.65;;
61038;SDS011;46919;45.816;3.104;2024-01-30T01:35:34;13.05;;;6.65;;
61038;SDS011;46919;45.816;3.104;2024-01-30T01:37:59;12.93;;;6.35;;
61038;SDS011;46919;45.816;3.104;2024-01-30T01:40:26;13.05;;;6.72;;
61038;SDS011;46919;45.816;3.104;2024-01-30T01:42:52;13.88;;;6.45;;
61038;SDS011;46919;45.816;3.104;2024-01-30T01:45:19;14.20;;;7.00;;
61038;SDS011;46919;45.816;3.104;2024-01-30T01:47:46;9.15;;;4.93;;
61038;SDS011;46919;45.816;3.104;2024-01-30T01:50:15;12.70;;;5.93;;
61038;SDS011;46919;45.816;3.104;2024-01-30T01:52:44;11.23;;;6.13;;
61038;SDS011;46919;45.816;3.104;2024-01-30T01:55:12;8.63;;;5.30;;
61038;SDS011;46919;45.816;3.104;2024-01-30T01:57:38;9.32;;;5.68;;
61038;SDS011;46919;45.816;3.104;2024-01-30T02:00:04;9.27;;;5.72;;
61038;SDS011;46919;45.816;3.104;2024-01-30T02:02:30;8.90;;;5.57;;
61038;SDS011;46919;45.816;3.104;2024-01-30T02:04:57;8.77;;;4.78;;
61038;SDS011;46919;45.816;3.104;2024-01-30T02:07:24;9.07;;;5.03;;
61038;SDS011;46919;45.816;3.104;2024-01-30T02:09:49;7.45;;;4.57;;
61038;SDS011;46919;45.816;3.104;2024-01-30T02:12:14;9.93;;;5.00;;
61038;SDS011;46919;45.816;3.104;2024-01-30T02:14:46;10.63;;;5.95;;
61038;SDS011;46919;45.816;3.104;2024-01-30T02:19:39;9.23;;;5.53;;
61038;SDS011;46919;45.816;3.104;2024-01-30T02:22:04;6.88;;;4.72;;
61038;SDS011;46919;45.816;3.104;2024-01-30T02:24:30;10.05;;;5.60;;
61038;SDS011;46919;45.816;3.104;2024-01-30T02:26:56;7.38;;;4.60;;
61038;SDS011;46919;45.816;3.104;2024-01-30T02:29:21;8.38;;;5.05;;
61038;SDS011;46919;45.816;3.104;2024-01-30T02:31:47;10.57;;;5.78;;
61038;SDS011;46919;45.816;3.104;2024-01-30T02:34:13;10.00;;;5.60;;
61038;SDS011;46919;45.816;3.104;2024-01-30T02:36:38;9.13;;;5.18;;
61038;SDS011;46919;45.816;3.104;2024-01-30T02:39:07;7.65;;;4.35;;
61038;SDS011;46919;45.816;3.104;2024-01-30T02:41:33;8.60;;;4.90;;
61038;SDS011;46919;45.816;3.104;2024-01-30T02:43:58;7.90;;;4.85;;
61038;SDS011;46919;45.816;3.104;2024-01-30T02:46:24;8.20;;;4.80;;
61038;SDS011;46919;45.816;3.104;2024-01-30T02:48:49;8.07;;;4.60;;
61038;SDS011;46919;45.816;3.104;2024-01-30T02:51:14;8.02;;;4.55;;
61038;SDS011;46919;45.816;3.104;2024-01-30T02:53:40;6.28;;;4.22;;
61038;SDS011;46919;45.816;3.104;2024-01-30T02:56:05;6.50;;;4.28;;
61038;SDS011;46919;45.816;3.104;2024-01-30T02:58:34;7.60;;;4.20;;
61038;SDS011;46919;45.816;3.104;2024-01-30T03:01:00;8.32;;;4.40;;
61038;SDS011;46919;45.816;3.104;2024-01-30T03:03:25;6.13;;;3.83;;
61038;SDS011;46919;45.816;3.104;2024-01-30T03:05:50;8.63;;;4.15;;
61038;SDS011;46919;45.816;3.104;2024-01-30T03:08:16;6.65;;;4.13;;
61038;SDS011;46919;45.816;3.104;2024-01-30T03:10:41;5.55;;;3.92;;
61038;SDS011;46919;45.816;3.104;2024-01-30T03:13:06;4.60;;;3.72;;
61038;SDS011;46919;45.816;3.104;2024-01-30T03:15:32;5.57;;;3.60;;
61038;SDS011;46919;45.816;3.104;2024-01-30T03:17:57;6.15;;;3.92;;
61038;SDS011;46919;45.816;3.104;2024-01-30T03:20:23;6.05;;;3.65;;
61038;SDS011;46919;45.816;3.104;2024-01-30T03:22:49;5.57;;;3.90;;
61038;SDS011;46919;45.816;3.104;2024-01-30T03:25:14;5.75;;;3.65;;
61038;SDS011;46919;45.816;3.104;2024-01-30T03:27:40;5.68;;;3.95;;
61038;SDS011;46919;45.816;3.104;2024-01-30T03:30:06;5.25;;;3.28;;
61038;SDS011;46919;45.816;3.104;2024-01-30T03:32:32;5.10;;;3.65;;
61038;SDS011;46919;45.816;3.104;2024-01-30T03:34:57;6.20;;;3.85;;
61038;SDS011;46919;45.816;3.104;2024-01-30T03:37:23;5.32;;;3.72;;
61038;SDS011;46919;45.816;3.104;2024-01-30T03:39:48;5.95;;;3.88;;
61038;SDS011;46919;45.816;3.104;2024-01-30T03:42:14;8.27;;;3.83;;
61038;SDS011;46919;45.816;3.104;2024-01-30T03:44:39;5.97;;;3.70;;
61038;SDS011;46919;45.816;3.104;2024-01-30T03:47:05;9.65;;;3.70;;
61038;SDS011;46919;45.816;3.104;2024-01-30T03:49:30;10.13;;;4.53;;
61038;SDS011;46919;45.816;3.104;2024-01-30T03:51:55;6.57;;;4.20;;
61038;SDS011;46919;45.816;3.104;2024-01-30T03:54:21;10.52;;;5.60;;
61038;SDS011;46919;45.816;3.104;2024-01-30T03:56:46;7.35;;;4.68;;
61038;SDS011;46919;45.816;3.104;2024-01-30T03:59:12;6.65;;;4.30;;
61038;SDS011;46919;45.816;3.104;2024-01-30T04:01:37;5.95;;;4.03;;
61038;SDS011;46919;45.816;3.104;2024-01-30T04:04:03;5.47;;;3.70;;
61038;SDS011;46919;45.816;3.104;2024-01-30T04:06:28;9.63;;;3.85;;
61038;SDS011;46919;45.816;3.104;2024-01-30T04:08:54;5.20;;;3.65;;
61038;SDS011;46919;45.816;3.104;2024-01-30T04:11:19;8.77;;;4.03;;
61038;SDS011;46919;45.816;3.104;2024-01-30T04:13:45;5.28;;;3.63;;
61038;SDS011;46919;45.816;3.104;2024-01-30T04:16:18;8.05;;;4.68;;
61038;SDS011;46919;45.816;3.104;2024-01-30T04:18:46;9.15;;;4.90;;
61038;SDS011;46919;45.816;3.104;2024-01-30T04:21:11;9.35;;;5.15;;
61038;SDS011;46919;45.816;3.104;2024-01-30T04:23:36;7.95;;;4.50;;
61038;SDS011;46919;45.816;3.104;2024-01-30T04:26:02;7.72;;;4.70;;
61038;SDS011;46919;45.816;3.104;2024-01-30T04:28:28;7.93;;;4.60;;
61038;SDS011;46919;45.816;3.104;2024-01-30T04:30:53;8.27;;;4.80;;
61038;SDS011;46919;45.816;3.104;2024-01-30T04:33:19;7.82;;;5.05;;
61038;SDS011;46919;45.816;3.104;2024-01-30T04:35:44;7.40;;;4.88;;
61038;SDS011;46919;45.816;3.104;2024-01-30T04:38:10;9.00;;;4.72;;
61038;SDS011;46919;45.816;3.104;2024-01-30T04:40:35;7.07;;;4.38;;
61038;SDS011;46919;45.816;3.104;2024-01-30T04:43:01;7.07;;;4.72;;
61038;SDS011;46919;45.816;3.104;2024-01-30T04:45:26;7.13;;;4.85;;
61038;SDS011;46919;45.816;3.104;2024-01-30T04:47:51;8.55;;;5.28;;
61038;SDS011;46919;45.816;3.104;2024-01-30T04:50:17;10.52;;;5.57;;
61038;SDS011;46919;45.816;3.104;2024-01-30T04:52:43;7.28;;;4.80;;
61038;SDS011;46919;45.816;3.104;2024-01-30T04:55:09;8.13;;;4.70;;
61038;SDS011;46919;45.816;3.104;2024-01-30T04:57:34;8.23;;;4.90;;
61038;SDS011;46919;45.816;3.104;2024-01-30T04:59:59;6.85;;;4.47;;
61038;SDS011;46919;45.816;3.104;2024-01-30T05:02:25;8.30;;;4.80;;
61038;SDS011;46919;45.816;3.104;2024-01-30T05:04:50;6.78;;;4.45;;
61038;SDS011;46919;45.816;3.104;2024-01-30T05:07:15;6.22;;;4.47;;
61038;SDS011;46919;45.816;3.104;2024-01-30T05:09:41;7.93;;;4.65;;
61038;SDS011;46919;45.816;3.104;2024-01-30T05:12:06;5.55;;;4.47;;
61038;SDS011;46919;45.816;3.104;2024-01-30T05:14:32;4.80;;;3.95;;
61038;SDS011;46919;45.816;3.104;2024-01-30T05:16:57;6.75;;;4.80;;
61038;SDS011;46919;45.816;3.104;2024-01-30T05:19:23;5.07;;;3.75;;
61038;SDS011;46919;45.816;3.104;2024-01-30T05:21:48;5.75;;;3.72;;
61038;SDS011;46919;45.816;3.104;2024-01-30T05:24:14;5.88;;;3.47;;
61038;SDS011;46919;45.816;3.104;2024-01-30T05:26:40;6.32;;;3.70;;
61038;SDS011;46919;45.816;3.104;2024-01-30T05:29:05;4.88;;;3.10;;
61038;SDS011;46919;45.816;3.104;2024-01-30T05:31:31;5.22;;;3.65;;
61038;SDS011;46919;45.816;3.104;2024-01-30T05:33:57;4.80;;;4.03;;
61038;SDS011;46919;45.816;3.104;2024-01-30T05:36:22;7.22;;;4.20;;
61038;SDS011;46919;45.816;3.104;2024-01-30T05:38:48;4.93;;;3.38;;
61038;SDS011;46919;45.816;3.104;2024-01-30T05:41:13;5.93;;;3.70;;
61038;SDS011;46919;45.816;3.104;2024-01-30T05:43:39;6.47;;;3.90;;
61038;SDS011;46919;45.816;3.104;2024-01-30T05:46:04;3.85;;;3.30;;
61038;SDS011;46919;45.816;3.104;2024-01-30T05:48:29;6.13;;;3.30;;
61038;SDS011;46919;45.816;3.104;2024-01-30T05:50:55;5.50;;;3.38;;
61038;SDS011;46919;45.816;3.104;2024-01-30T05:53:21;5.30;;;3.55;;
61038;SDS011;46919;45.816;3.104;2024-01-30T05:55:47;6.05;;;3.17;;
61038;SDS011;46919;45.816;3.104;2024-01-30T05:58:12;4.85;;;3.13;;
61038;SDS011;46919;45.816;3.104;2024-01-30T06:00:37;6.32;;;3.58;;
61038;SDS011;46919;45.816;3.104;2024-01-30T06:03:03;5.50;;;3.85;;
61038;SDS011;46919;45.816;3.104;2024-01-30T06:05:29;4.82;;;3.05;;
61038;SDS011;46919;45.816;3.104;2024-01-30T06:07:54;6.47;;;3.25;;
61038;SDS011;46919;45.816;3.104;2024-01-30T06:10:19;5.25;;;3.53;;
61038;SDS011;46919;45.816;3.104;2024-01-30T06:12:45;5.10;;;3.15;;
61038;SDS011;46919;45.816;3.104;2024-01-30T06:15:10;3.22;;;2.92;;
61038;SDS011;46919;45.816;3.104;2024-01-30T06:17:37;6.97;;;3.15;;
61038;SDS011;46919;45.816;3.104;2024-01-30T06:20:03;4.15;;;3.10;;
61038;SDS011;46919;45.816;3.104;2024-01-30T06:22:29;4.45;;;2.88;;
61038;SDS011;46919;45.816;3.104;2024-01-30T06:24:54;5.15;;;3.35;;
61038;SDS011;46919;45.816;3.104;2024-01-30T06:27:20;5.05;;;3.30;;
61038;SDS011;46919;45.816;3.104;2024-01-30T06:29:45;6.68;;;3.60;;
61038;SDS011;46919;45.816;3.104;2024-01-30T06:32:11;5.22;;;3.72;;
61038;SDS011;46919;45.816;3.104;2024-01-30T06:34:36;5.43;;;3.45;;
61038;SDS011;46919;45.816;3.104;2024-01-30T06:37:03;5.25;;;3.55;;
61038;SDS011;46919;45.816;3.104;2024-01-30T06:39:29;5.18;;;3.45;;
61038;SDS011;46919;45.816;3.104;2024-01-30T06:41:54;8.00;;;3.40;;
61038;SDS011;46919;45.816;3.104;2024-01-30T06:44:20;5.68;;;3.50;;
61038;SDS011;46919;45.816;3.104;2024-01-30T06:46:45;5.53;;;3.55;;
61038;SDS011;46919;45.816;3.104;2024-01-30T06:49:10;5.30;;;3.50;;
61038;SDS011;46919;45.816;3.104;2024-01-30T06:51:36;4.72;;;3.50;;
61038;SDS011;46919;45.816;3.104;2024-01-30T06:54:01;6.28;;;3.83;;
61038;SDS011;46919;45.816;3.104;2024-01-30T06:56:27;4.72;;;3.33;;
61038;SDS011;46919;45.816;3.104;2024-01-30T06:58:53;5.03;;;4.00;;
61038;SDS011;46919;45.816;3.104;2024-01-30T07:01:18;5.22;;;3.85;;
61038;SDS011;46919;45.816;3.104;2024-01-30T07:03:44;8.68;;;5.03;;
61038;SDS011;46919;45.816;3.104;2024-01-30T07:06:09;5.82;;;4.32;;
61038;SDS011;46919;45.816;3.104;2024-01-30T07:08:38;5.95;;;4.35;;
61038;SDS011;46919;45.816;3.104;2024-01-30T07:11:06;7.13;;;4.80;;
61038;SDS011;46919;45.816;3.104;2024-01-30T07:13:32;5.43;;;4.40;;
61038;SDS011;46919;45.816;3.104;2024-01-30T07:15:57;6.60;;;4.55;;
61038;SDS011;46919;45.816;3.104;2024-01-30T07:18:23;8.88;;;5.60;;
61038;SDS011;46919;45.816;3.104;2024-01-30T07:20:49;10.27;;;6.15;;
61038;SDS011;46919;45.816;3.104;2024-01-30T07:23:15;11.10;;;6.50;;
61038;SDS011;46919;45.816;3.104;2024-01-30T07:25:45;10.60;;;6.22;;
61038;SDS011;46919;45.816;3.104;2024-01-30T07:28:13;9.38;;;6.80;;
61038;SDS011;46919;45.816;3.104;2024-01-30T07:30:41;14.55;;;7.18;;
61038;SDS011;46919;45.816;3.104;2024-01-30T07:33:07;11.40;;;7.80;;
61038;SDS011;46919;45.816;3.104;2024-01-30T07:35:33;11.27;;;8.02;;
61038;SDS011;46919;45.816;3.104;2024-01-30T07:37:59;12.18;;;7.32;;
61038;SDS011;46919;45.816;3.104;2024-01-30T07:40:24;9.65;;;7.38;;
61038;SDS011;46919;45.816;3.104;2024-01-30T07:42:50;10.02;;;7.05;;
61038;SDS011;46919;45.816;3.104;2024-01-30T07:45:15;11.65;;;7.13;;
61038;SDS011;46919;45.816;3.104;2024-01-30T07:47:41;12.40;;;7.45;;
61038;SDS011;46919;45.816;3.104;2024-01-30T07:50:07;14.02;;;8.88;;
61038;SDS011;46919;45.816;3.104;2024-01-30T07:52:33;21.05;;;13.63;;
61038;SDS011;46919;45.816;3.104;2024-01-30T07:54:58;25.23;;;15.77;;
61038;SDS011;46919;45.816;3.104;2024-01-30T07:57:24;41.20;;;24.17;;
61038;SDS011;46919;45.816;3.104;2024-01-30T07:59:49;35.92;;;22.48;;
61038;SDS011;46919;45.816;3.104;2024-01-30T08:02:15;25.30;;;15.52;;
61038;SDS011;46919;45.816;3.104;2024-01-30T08:04:40;13.90;;;9.98;;
61038;SDS011;46919;45.816;3.104;2024-01-30T08:07:06;10.85;;;8.20;;
61038;SDS011;46919;45.816;3.104;2024-01-30T08:09:31;11.30;;;8.27;;
61038;SDS011;46919;45.816;3.104;2024-01-30T08:11:57;11.40;;;9.07;;
61038;SDS011;46919;45.816;3.104;2024-01-30T08:14:22;13.23;;;9.60;;
61038;SDS011;46919;45.816;3.104;2024-01-30T08:16:47;11.70;;;9.63;;
61038;SDS011;46919;45.816;3.104;2024-01-30T08:19:14;12.48;;;9.05;;
61038;SDS011;46919;45.816;3.104;2024-01-30T08:21:39;12.23;;;8.35;;
61038;SDS011;46919;45.816;3.104;2024-01-30T08:24:05;12.90;;;8.20;;
61038;SDS011;46919;45.816;3.104;2024-01-30T08:26:31;11.23;;;7.47;;
61038;SDS011;46919;45.816;3.104;2024-01-30T08:28:57;9.88;;;7.57;;
61038;SDS011;46919;45.816;3.104;2024-01-30T08:31:23;10.80;;;7.72;;
61038;SDS011;46919;45.816;3.104;2024-01-30T08:33:48;12.45;;;8.10;;
61038;SDS011;46919;45.816;3.104;2024-01-30T08:36:15;12.70;;;9.30;;
61038;SDS011;46919;45.816;3.104;2024-01-30T08:38:41;11.80;;;8.95;;
61038;SDS011;46919;45.816;3.104;2024-01-30T08:41:07;12.73;;;8.70;;
61038;SDS011;46919;45.816;3.104;2024-01-30T08:43:32;12.18;;;9.13;;
61038;SDS011;46919;45.816;3.104;2024-01-30T08:46:01;14.65;;;9.45;;
61038;SDS011;46919;45.816;3.104;2024-01-30T08:48:26;10.85;;;9.20;;
61038;SDS011;46919;45.816;3.104;2024-01-30T08:50:52;14.00;;;10.68;;
61038;SDS011;46919;45.816;3.104;2024-01-30T08:53:17;18.95;;;11.88;;
61038;SDS011;46919;45.816;3.104;2024-01-30T08:55:44;20.33;;;11.45;;
61038;SDS011;46919;45.816;3.104;2024-01-30T08:58:09;15.18;;;10.82;;
61038;SDS011;46919;45.816;3.104;2024-01-30T09:00:35;25.02;;;18.40;;
61038;SDS011;46919;45.816;3.104;2024-01-30T09:03:00;28.40;;;20.40;;
61038;SDS011;46919;45.816;3.104;2024-01-30T09:05:26;24.05;;;16.73;;
61038;SDS011;46919;45.816;3.104;2024-01-30T09:07:51;16.60;;;12.85;;
61038;SDS011;46919;45.816;3.104;2024-01-30T09:10:17;18.58;;;12.32;;
61038;SDS011;46919;45.816;3.104;2024-01-30T09:12:42;16.73;;;11.93;;
61038;SDS011;46919;45.816;3.104;2024-01-30T09:15:08;13.70;;;10.93;;
61038;SDS011;46919;45.816;3.104;2024-01-30T09:17:34;18.10;;;11.45;;
61038;SDS011;46919;45.816;3.104;2024-01-30T09:19:59;15.27;;;11.15;;
61038;SDS011;46919;45.816;3.104;2024-01-30T09:22:24;16.77;;;11.63;;
61038;SDS011;46919;45.816;3.104;2024-01-30T09:24:50;18.65;;;13.52;;
61038;SDS011;46919;45.816;3.104;2024-01-30T09:27:16;22.67;;;13.98;;
61038;SDS011;46919;45.816;3.104;2024-01-30T09:29:41;17.85;;;12.00;;
61038;SDS011;46919;45.816;3.104;2024-01-30T09:32:07;16.08;;;10.48;;
61038;SDS011;46919;45.816;3.104;2024-01-30T09:34:34;13.20;;;9.38;;
61038;SDS011;46919;45.816;3.104;2024-01-30T09:36:59;14.73;;;9.50;;
61038;SDS011;46919;45.816;3.104;2024-01-30T09:39:25;18.20;;;10.68;;
61038;SDS011;46919;45.816;3.104;2024-01-30T09:44:44;15.02;;;10.35;;
61038;SDS011;46919;45.816;3.104;2024-01-30T09:47:12;16.67;;;9.63;;
61038;SDS011;46919;45.816;3.104;2024-01-30T09:49:38;13.00;;;9.13;;
61038;SDS011;46919;45.816;3.104;2024-01-30T09:52:05;15.52;;;9.00;;
61038;SDS011;46919;45.816;3.104;2024-01-30T09:54:31;12.98;;;8.30;;
61038;SDS011;46919;45.816;3.104;2024-01-30T09:56:58;14.73;;;7.97;;
61038;SDS011;46919;45.816;3.104;2024-01-30T09:59:23;10.27;;;7.57;;
61038;SDS011;46919;45.816;3.104;2024-01-30T10:01:50;10.05;;;7.13;;
61038;SDS011;46919;45.816;3.104;2024-01-30T10:04:16;10.18;;;6.95;;
61038;SDS011;46919;45.816;3.104;2024-01-30T10:06:42;13.63;;;7.53;;
61038;SDS011;46919;45.816;3.104;2024-01-30T10:09:07;10.82;;;7.28;;
61038;SDS011;46919;45.816;3.104;2024-01-30T10:11:34;9.60;;;7.25;;
61038;SDS011;46919;45.816;3.104;2024-01-30T10:14:00;10.27;;;7.57;;
61038;SDS011;46919;45.816;3.104;2024-01-30T10:16:25;14.48;;;7.72;;
61038;SDS011;46919;45.816;3.104;2024-01-30T10:18:51;9.23;;;6.75;;
61038;SDS011;46919;45.816;3.104;2024-01-30T10:21:16;11.90;;;6.68;;
61038;SDS011;46919;45.816;3.104;2024-01-30T10:23:43;13.88;;;7.47;;
61038;SDS011;46919;45.816;3.104;2024-01-30T10:26:09;8.77;;;7.28;;
61038;SDS011;46919;45.816;3.104;2024-01-30T10:28:35;8.93;;;6.95;;
61038;SDS011;46919;45.816;3.104;2024-01-30T10:31:00;9.35;;;6.65;;
61038;SDS011;46919;45.816;3.104;2024-01-30T10:33:26;10.65;;;6.70;;
61038;SDS011;46919;45.816;3.104;2024-01-30T10:36:00;8.50;;;6.68;;
61038;SDS011;46919;45.816;3.104;2024-01-30T10:38:30;10.20;;;7.85;;
61038;SDS011;46919;45.816;3.104;2024-01-30T10:40:57;10.57;;;7.20;;
61038;SDS011;46919;45.816;3.104;2024-01-30T10:43:24;10.35;;;7.05;;
61038;SDS011;46919;45.816;3.104;2024-01-30T10:46:19;11.07;;;7.35;;
61038;SDS011;46919;45.816;3.104;2024-01-30T10:48:49;11.43;;;7.40;;
61038;SDS011;46919;45.816;3.104;2024-01-30T10:51:22;11.93;;;6.85;;
61038;SDS011;46919;45.816;3.104;2024-01-30T10:53:47;14.25;;;7.38;;
61038;SDS011;46919;45.816;3.104;2024-01-30T10:56:14;6.63;;;5.15;;
61038;SDS011;46919;45.816;3.104;2024-01-30T10:58:41;11.35;;;5.00;;
61038;SDS011;46919;45.816;3.104;2024-01-30T11:01:07;9.10;;;4.18;;
61038;SDS011;46919;45.816;3.104;2024-01-30T11:03:34;5.97;;;3.75;;
61038;SDS011;46919;45.816;3.104;2024-01-30T11:06:01;5.38;;;2.85;;
61038;SDS011;46919;45.816;3.104;2024-01-30T11:08:27;7.90;;;3.20;;
61038;SDS011;46919;45.816;3.104;2024-01-30T11:10:57;7.53;;;3.38;;
61038;SDS011;46919;45.816;3.104;2024-01-30T11:13:26;7.13;;;3.38;;
61038;SDS011;46919;45.816;3.104;2024-01-30T11:15:55;5.32;;;3.00;;
61038;SDS011;46919;45.816;3.104;2024-01-30T11:18:24;6.35;;;2.85;;
61038;SDS011;46919;45.816;3.104;2024-01-30T11:20:50;5.47;;;2.88;;
61038;SDS011;46919;45.816;3.104;2024-01-30T11:23:16;5.93;;;3.50;;
61038;SDS011;46919;45.816;3.104;2024-01-30T11:25:43;5.72;;;3.20;;
61038;SDS011;46919;45.816;3.104;2024-01-30T11:28:13;8.52;;;3.95;;
61038;SDS011;46919;45.816;3.104;2024-01-30T11:30:42;4.82;;;3.78;;
61038;SDS011;46919;45.816;3.104;2024-01-30T11:33:09;7.93;;;3.65;;
61038;SDS011;46919;45.816;3.104;2024-01-30T11:35:39;10.13;;;3.65;;
61038;SDS011;46919;45.816;3.104;2024-01-30T11:38:06;5.35;;;3.53;;
61038;SDS011;46919;45.816;3.104;2024-01-30T11:40:33;5.53;;;3.42;;
61038;SDS011;46919;45.816;3.104;2024-01-30T11:43:00;6.50;;;4.10;;
61038;SDS011;46919;45.816;3.104;2024-01-30T11:45:27;4.32;;;3.33;;
61038;SDS011;46919;45.816;3.104;2024-01-30T11:47:53;5.35;;;3.35;;
61038;SDS011;46919;45.816;3.104;2024-01-30T11:50:19;7.60;;;3.75;;
61038;SDS011;46919;45.816;3.104;2024-01-30T11:52:45;5.95;;;3.42;;
61038;SDS011;46919;45.816;3.104;2024-01-30T11:55:11;6.40;;;3.50;;
61038;SDS011;46919;45.816;3.104;2024-01-30T11:57:38;5.88;;;3.35;;
61038;SDS011;46919;45.816;3.104;2024-01-30T12:00:04;4.15;;;3.05;;
61038;SDS011;46919;45.816;3.104;2024-01-30T12:02:38;6.07;;;3.78;;
61038;SDS011;46919;45.816;3.104;2024-01-30T12:05:04;5.45;;;3.20;;
61038;SDS011;46919;45.816;3.104;2024-01-30T12:07:30;5.32;;;3.25;;
61038;SDS011;46919;45.816;3.104;2024-01-30T12:09:56;5.47;;;3.10;;
61038;SDS011;46919;45.816;3.104;2024-01-30T12:12:25;5.20;;;2.83;;
61038;SDS011;46919;45.816;3.104;2024-01-30T12:14:51;5.97;;;2.88;;
61038;SDS011;46919;45.816;3.104;2024-01-30T12:17:30;4.00;;;2.67;;
61038;SDS011;46919;45.816;3.104;2024-01-30T12:22:36;7.18;;;3.38;;
61038;SDS011;46919;45.816;3.104;2024-01-30T12:25:13;9.95;;;3.58;;
61038;SDS011;46919;45.816;3.104;2024-01-30T12:27:40;3.78;;;2.78;;
61038;SDS011;46919;45.816;3.104;2024-01-30T12:30:17;4.38;;;3.00;;
61038;SDS011;46919;45.816;3.104;2024-01-30T12:32:45;4.03;;;2.72;;
61038;SDS011;46919;45.816;3.104;2024-01-30T12:35:13;4.45;;;2.55;;
61038;SDS011;46919;45.816;3.104;2024-01-30T12:37:42;5.65;;;2.78;;
61038;SDS011;46919;45.816;3.104;2024-01-30T12:40:09;6.07;;;2.25;;
61038;SDS011;46919;45.816;3.104;2024-01-30T12:42:35;3.85;;;2.30;;
61038;SDS011;46919;45.816;3.104;2024-01-30T12:45:03;5.95;;;2.90;;
61038;SDS011;46919;45.816;3.104;2024-01-30T12:47:30;3.88;;;2.42;;
61038;SDS011;46919;45.816;3.104;2024-01-30T12:49:55;5.05;;;2.92;;
61038;SDS011;46919;45.816;3.104;2024-01-30T12:52:21;4.15;;;2.40;;
61038;SDS011;46919;45.816;3.104;2024-01-30T12:54:47;5.20;;;2.55;;
61038;SDS011;46919;45.816;3.104;2024-01-30T12:57:13;6.72;;;2.10;;
61038;SDS011;46919;45.816;3.104;2024-01-30T12:59:39;4.65;;;2.63;;
61038;SDS011;46919;45.816;3.104;2024-01-30T13:02:04;4.38;;;2.20;;
61038;SDS011;46919;45.816;3.104;2024-01-30T13:04:31;4.65;;;2.40;;
61038;SDS011;46919;45.816;3.104;2024-01-30T13:06:56;5.07;;;2.47;;
61038;SDS011;46919;45.816;3.104;2024-01-30T13:09:23;4.57;;;2.17;;
61038;SDS011;46919;45.816;3.104;2024-01-30T13:11:49;4.57;;;2.50;;
61038;SDS011;46919;45.816;3.104;2024-01-30T13:14:16;4.30;;;2.42;;
61038;SDS011;46919;45.816;3.104;2024-01-30T13:16:41;8.15;;;2.60;;
61038;SDS011;46919;45.816;3.104;2024-01-30T13:19:07;5.68;;;2.30;;
61038;SDS011;46919;45.816;3.104;2024-01-30T13:21:32;7.15;;;2.70;;
61038;SDS011;46919;45.816;3.104;2024-01-30T13:23:58;7.25;;;2.03;;
61038;SDS011;46919;45.816;3.104;2024-01-30T13:26:23;4.53;;;2.20;;
61038;SDS011;46919;45.816;3.104;2024-01-30T13:28:49;4.45;;;2.38;;
61038;SDS011;46919;45.816;3.104;2024-01-30T13:31:14;5.10;;;2.25;;
61038;SDS011;46919;45.816;3.104;2024-01-30T13:33:40;4.63;;;2.45;;
61038;SDS011;46919;45.816;3.104;2024-01-30T13:36:09;4.05;;;2.45;;
61038;SDS011;46919;45.816;3.104;2024-01-30T13:38:35;6.07;;;3.00;;
61038;SDS011;46919;45.816;3.104;2024-01-30T13:41:01;5.05;;;2.65;;
61038;SDS011;46919;45.816;3.104;2024-01-30T13:43:26;4.13;;;2.67;;
61038;SDS011;46919;45.816;3.104;2024-01-30T13:45:52;4.32;;;2.95;;
61038;SDS011;46919;45.816;3.104;2024-01-30T13:48:17;8.13;;;2.70;;
61038;SDS011;46919;45.816;3.104;2024-01-30T13:50:43;5.68;;;2.30;;
61038;SDS011;46919;45.816;3.104;2024-01-30T13:53:08;3.85;;;2.63;;
61038;SDS011;46919;45.816;3.104;2024-01-30T13:55:34;5.88;;;2.38;;
61038;SDS011;46919;45.816;3.104;2024-01-30T13:58:00;4.63;;;2.58;;
61038;SDS011;46919;45.816;3.104;2024-01-30T14:00:26;4.40;;;2.50;;
61038;SDS011;46919;45.816;3.104;2024-01-30T14:02:52;4.47;;;2.83;;
61038;SDS011;46919;45.816;3.104;2024-01-30T14:05:19;4.68;;;2.85;;
61038;SDS011;46919;45.816;3.104;2024-01-30T14:07:46;9.15;;;3.38;;
61038;SDS011;46919;45.816;3.104;2024-01-30T14:10:12;5.93;;;3.30;;
61038;SDS011;46919;45.816;3.104;2024-01-30T14:12:38;5.95;;;3.05;;
61038;SDS011;46919;45.816;3.104;2024-01-30T14:15:03;5.72;;;2.83;;
61038;SDS011;46919;45.816;3.104;2024-01-30T14:17:29;4.30;;;2.97;;
61038;SDS011;46919;45.816;3.104;2024-01-30T14:19:55;4.13;;;3.10;;
61038;SDS011;46919;45.816;3.104;2024-01-30T14:22:20;4.07;;;3.00;;
61038;SDS011;46919;45.816;3.104;2024-01-30T14:24:45;9.35;;;3.85;;
61038;SDS011;46919;45.816;3.104;2024-01-30T14:27:12;10.15;;;3.65;;
61038;SDS011;46919;45.816;3.104;2024-01-30T14:29:37;5.25;;;3.22;;
61038;SDS011;46919;45.816;3.104;2024-01-30T14:32:03;9.00;;;3.15;;
61038;SDS011;46919;45.816;3.104;2024-01-30T14:34:29;7.15;;;3.50;;
61038;SDS011;46919;45.816;3.104;2024-01-30T14:36:54;7.30;;;3.70;;
61038;SDS011;46919;45.816;3.104;2024-01-30T14:39:20;6.90;;;3.63;;
61038;SDS011;46919;45.816;3.104;2024-01-30T14:41:45;5.38;;;3.28;;
61038;SDS011;46919;45.816;3.104;2024-01-30T14:44:11;4.78;;;3.35;;